sensor_id;sensor_type;location;lat;lon;timestamp;pressure;altitude;pressure_sealevel;temperature;humidity
39949;BME280;29070;48.102;-1.652;2022-09-12T00:04:34;101001.25;;;17.72;63.41
39949;BME280;29070;48.102;-1.652;2022-09-12T00:09:34;101000.31;;;17.67;63.20
39949;BME280;29070;48.102;-1.652;2022-09-12T00:14:35;100997.50;;;17.57;63.58
39949;BME280;29070;48.102;-1.652;2022-09-12T00:19:35;101001.06;;;17.50;63.54
39949;BME280;29070;48.102;-1.652;2022-09-12T00:24:35;100990.34;;;17.45;63.75
39949;BME280;29070;48.102;-1.652;2022-09-12T00:29:36;100984.69;;;17.42;64.26
39949;BME280;29070;48.102;-1.652;2022-09-12T00:34:36;100987.34;;;17.42;64.48
39949;BME280;29070;48.102;-1.652;2022-09-12T00:39:37;100972.25;;;17.42;64.72
39949;BME280;29070;48.102;-1.652;2022-09-12T00:55:19;100974.91;;;17.42;65.45
39949;BME280;29070;48.102;-1.652;2022-09-12T01:00:23;100971.72;;;16.93;66.93
39949;BME280;29070;48.102;-1.652;2022-09-12T01:05:25;100965.50;;;16.99;67.47
39949;BME280;29070;48.102;-1.652;2022-09-12T01:10:26;100971.25;;;17.20;66.24
39949;BME280;29070;48.102;-1.652;2022-09-12T01:15:27;100968.81;;;17.30;65.70
39949;BME280;29070;48.102;-1.652;2022-09-12T01:20:50;100959.22;;;17.29;66.12
39949;BME280;29070;48.102;-1.652;2022-09-12T01:26:14;100947.47;;;17.25;65.99
39949;BME280;29070;48.102;-1.652;2022-09-12T01:31:56;100950.69;;;17.27;66.28
39949;BME280;29070;48.102;-1.652;2022-09-12T01:37:58;100940.09;;;17.27;66.33
39949;BME280;29070;48.102;-1.652;2022-09-12T01:47:41;100930.09;;;17.17;66.10
39949;BME280;29070;48.102;-1.652;2022-09-12T01:52:51;100929.75;;;17.13;66.34
39949;BME280;29070;48.102;-1.652;2022-09-12T02:03:03;100912.66;;;17.09;66.57
39949;BME280;29070;48.102;-1.652;2022-09-12T02:08:24;100904.16;;;17.07;66.81
39949;BME280;29070;48.102;-1.652;2022-09-12T02:18:43;100899.78;;;17.01;66.94
39949;BME280;29070;48.102;-1.652;2022-09-12T02:23:47;100892.28;;;16.98;67.12
39949;BME280;29070;48.102;-1.652;2022-09-12T02:28:52;100892.53;;;16.96;67.23
39949;BME280;29070;48.102;-1.652;2022-09-12T02:39:13;100881.56;;;16.93;67.25
39949;BME280;29070;48.102;-1.652;2022-09-12T02:44:18;100863.72;;;16.88;67.25
39949;BME280;29070;48.102;-1.652;2022-09-12T02:49:19;100869.03;;;16.88;67.36
39949;BME280;29070;48.102;-1.652;2022-09-12T02:54:20;100860.75;;;16.85;67.35
39949;BME280;29070;48.102;-1.652;2022-09-12T02:59:22;100845.84;;;16.84;67.39
39949;BME280;29070;48.102;-1.652;2022-09-12T03:10:23;100841.44;;;16.77;68.16
39949;BME280;29070;48.102;-1.652;2022-09-12T03:21:03;100833.97;;;16.74;68.21
39949;BME280;29070;48.102;-1.652;2022-09-12T03:26:35;100829.69;;;16.73;68.31
39949;BME280;29070;48.102;-1.652;2022-09-12T03:31:51;100830.84;;;16.77;68.04
39949;BME280;29070;48.102;-1.652;2022-09-12T03:36:52;100824.06;;;16.82;68.18
39949;BME280;29070;48.102;-1.652;2022-09-12T03:41:55;100820.72;;;16.86;68.00
39949;BME280;29070;48.102;-1.652;2022-09-12T03:46:55;100822.09;;;16.89;68.19
39949;BME280;29070;48.102;-1.652;2022-09-12T03:51:55;100830.63;;;16.91;68.27
39949;BME280;29070;48.102;-1.652;2022-09-12T03:56:56;100822.09;;;16.89;68.23
39949;BME280;29070;48.102;-1.652;2022-09-12T04:01:56;100817.13;;;16.92;68.32
39949;BME280;29070;48.102;-1.652;2022-09-12T04:06:56;100823.00;;;16.94;68.38
39949;BME280;29070;48.102;-1.652;2022-09-12T04:11:57;100823.25;;;16.93;68.35
39949;BME280;29070;48.102;-1.652;2022-09-12T04:16:57;100809.88;;;16.88;68.22
39949;BME280;29070;48.102;-1.652;2022-09-12T04:21:58;100807.22;;;16.88;68.29
39949;BME280;29070;48.102;-1.652;2022-09-12T04:26:58;100808.28;;;16.87;68.39
39949;BME280;29070;48.102;-1.652;2022-09-12T04:31:58;100811.59;;;16.82;68.43
39949;BME280;29070;48.102;-1.652;2022-09-12T04:36:59;100813.69;;;16.80;68.58
39949;BME280;29070;48.102;-1.652;2022-09-12T04:41:59;100809.28;;;16.74;68.37
39949;BME280;29070;48.102;-1.652;2022-09-12T04:46:59;100802.50;;;16.66;68.66
39949;BME280;29070;48.102;-1.652;2022-09-12T04:52:00;100802.97;;;16.63;68.84
39949;BME280;29070;48.102;-1.652;2022-09-12T04:57:00;100809.00;;;16.58;68.84
39949;BME280;29070;48.102;-1.652;2022-09-12T05:02:01;100802.78;;;16.53;68.77
39949;BME280;29070;48.102;-1.652;2022-09-12T05:07:02;100798.38;;;16.47;68.86
39949;BME280;29070;48.102;-1.652;2022-09-12T05:12:02;100787.09;;;16.39;69.08
39949;BME280;29070;48.102;-1.652;2022-09-12T05:17:03;100794.16;;;16.34;69.29
39949;BME280;29070;48.102;-1.652;2022-09-12T05:22:05;100790.13;;;16.31;69.46
39949;BME280;29070;48.102;-1.652;2022-09-12T05:27:05;100779.41;;;16.26;69.48
39949;BME280;29070;48.102;-1.652;2022-09-12T05:32:06;100784.13;;;16.24;69.67
39949;BME280;29070;48.102;-1.652;2022-09-12T05:37:06;100786.19;;;16.22;69.78
39949;BME280;29070;48.102;-1.652;2022-09-12T05:42:07;100785.06;;;16.18;69.65
39949;BME280;29070;48.102;-1.652;2022-09-12T05:47:10;100780.69;;;16.12;69.98
39949;BME280;29070;48.102;-1.652;2022-09-12T05:52:10;100790.78;;;16.15;70.08
39949;BME280;29070;48.102;-1.652;2022-09-12T05:57:11;100783.91;;;16.14;70.16
39949;BME280;29070;48.102;-1.652;2022-09-12T06:02:12;100788.75;;;16.17;70.33
39949;BME280;29070;48.102;-1.652;2022-09-12T06:07:12;100787.69;;;16.18;70.52
39949;BME280;29070;48.102;-1.652;2022-09-12T06:12:13;100784.38;;;16.23;70.47
39949;BME280;29070;48.102;-1.652;2022-09-12T06:17:13;100782.06;;;16.26;70.68
39949;BME280;29070;48.102;-1.652;2022-09-12T06:22:14;100789.66;;;16.34;70.70
39949;BME280;29070;48.102;-1.652;2022-09-12T06:27:14;100801.97;;;16.41;70.77
39949;BME280;29070;48.102;-1.652;2022-09-12T06:32:15;100787.78;;;16.47;70.84
39949;BME280;29070;48.102;-1.652;2022-09-12T06:37:15;100778.69;;;16.54;70.74
39949;BME280;29070;48.102;-1.652;2022-09-12T06:42:16;100798.50;;;16.64;70.80
39949;BME280;29070;48.102;-1.652;2022-09-12T06:47:18;100795.81;;;16.75;70.95
39949;BME280;29070;48.102;-1.652;2022-09-12T06:52:20;100786.25;;;16.86;70.88
39949;BME280;29070;48.102;-1.652;2022-09-12T06:57:20;100791.84;;;17.02;71.15
39949;BME280;29070;48.102;-1.652;2022-09-12T07:02:20;100793.75;;;17.18;71.15
39949;BME280;29070;48.102;-1.652;2022-09-12T07:07:21;100793.81;;;17.35;71.13
39949;BME280;29070;48.102;-1.652;2022-09-12T07:12:21;100806.06;;;17.53;70.98
39949;BME280;29070;48.102;-1.652;2022-09-12T07:17:22;100788.03;;;17.72;70.93
39949;BME280;29070;48.102;-1.652;2022-09-12T07:22:22;100800.59;;;17.88;70.95
39949;BME280;29070;48.102;-1.652;2022-09-12T07:27:23;100801.59;;;18.04;70.68
39949;BME280;29070;48.102;-1.652;2022-09-12T07:32:23;100790.41;;;18.19;70.50
39949;BME280;29070;48.102;-1.652;2022-09-12T07:37:23;100786.91;;;18.36;70.24
39949;BME280;29070;48.102;-1.652;2022-09-12T07:42:24;100768.00;;;18.54;69.96
39949;BME280;29070;48.102;-1.652;2022-09-12T07:47:24;100773.59;;;18.75;69.88
39949;BME280;29070;48.102;-1.652;2022-09-12T07:52:24;100771.72;;;18.97;69.37
39949;BME280;29070;48.102;-1.652;2022-09-12T07:57:25;100763.97;;;19.18;69.19
39949;BME280;29070;48.102;-1.652;2022-09-12T08:02:25;100764.44;;;19.42;68.84
39949;BME280;29070;48.102;-1.652;2022-09-12T08:07:26;100753.69;;;19.59;68.23
39949;BME280;29070;48.102;-1.652;2022-09-12T08:12:27;100749.06;;;19.81;68.05
39949;BME280;29070;48.102;-1.652;2022-09-12T08:17:27;100753.22;;;20.05;67.82
39949;BME280;29070;48.102;-1.652;2022-09-12T08:22:29;100750.19;;;20.33;67.19
39949;BME280;29070;48.102;-1.652;2022-09-12T08:27:30;100764.66;;;20.53;66.37
39949;BME280;29070;48.102;-1.652;2022-09-12T08:32:31;100764.00;;;20.73;66.30
39949;BME280;29070;48.102;-1.652;2022-09-12T08:37:33;100766.47;;;20.95;65.53
39949;BME280;29070;48.102;-1.652;2022-09-12T08:47:56;100767.91;;;21.54;64.58
39949;BME280;29070;48.102;-1.652;2022-09-12T08:58:15;100740.28;;;22.10;63.33
39949;BME280;29070;48.102;-1.652;2022-09-12T09:08:59;100718.97;;;22.70;61.61
39949;BME280;29070;48.102;-1.652;2022-09-12T09:14:21;100738.56;;;23.00;61.66
39949;BME280;29070;48.102;-1.652;2022-09-12T09:19:52;100730.84;;;23.38;60.58
39949;BME280;29070;48.102;-1.652;2022-09-12T09:24:58;100726.28;;;23.68;60.07
39949;BME280;29070;48.102;-1.652;2022-09-12T09:30:01;100711.63;;;23.89;58.96
39949;BME280;29070;48.102;-1.652;2022-09-12T09:35:13;100710.25;;;24.16;57.92
39949;BME280;29070;48.102;-1.652;2022-09-12T09:40:28;100703.78;;;24.41;56.98
39949;BME280;29070;48.102;-1.652;2022-09-12T09:45:34;100714.72;;;24.69;55.99
39949;BME280;29070;48.102;-1.652;2022-09-12T09:50:35;100722.69;;;24.93;55.71
39949;BME280;29070;48.102;-1.652;2022-09-12T09:55:39;100727.75;;;25.14;55.29
39949;BME280;29070;48.102;-1.652;2022-09-12T10:00:41;100735.41;;;25.39;54.62
39949;BME280;29070;48.102;-1.652;2022-09-12T10:16:16;100711.94;;;26.05;52.79
39949;BME280;29070;48.102;-1.652;2022-09-12T10:26:37;100719.47;;;26.45;51.00
39949;BME280;29070;48.102;-1.652;2022-09-12T10:31:49;100717.16;;;26.52;50.80
39949;BME280;29070;48.102;-1.652;2022-09-12T10:36:59;100729.53;;;26.67;49.52
39949;BME280;29070;48.102;-1.652;2022-09-12T10:42:01;100735.91;;;26.71;49.99
39949;BME280;29070;48.102;-1.652;2022-09-12T10:47:21;100722.41;;;26.85;49.60
39949;BME280;29070;48.102;-1.652;2022-09-12T10:52:23;100705.25;;;27.04;49.86
39949;BME280;29070;48.102;-1.652;2022-09-12T11:03:28;100689.91;;;27.58;47.61
39949;BME280;29070;48.102;-1.652;2022-09-12T11:20:08;100686.94;;;28.08;46.22
39949;BME280;29070;48.102;-1.652;2022-09-12T11:25:51;100690.16;;;28.28;45.41
39949;BME280;29070;48.102;-1.652;2022-09-12T11:31:06;100683.16;;;28.27;45.64
39949;BME280;29070;48.102;-1.652;2022-09-12T11:36:16;100665.22;;;28.40;45.04
39949;BME280;29070;48.102;-1.652;2022-09-12T11:41:28;100666.38;;;28.65;44.58
39949;BME280;29070;48.102;-1.652;2022-09-12T11:46:36;100651.75;;;28.92;44.26
39949;BME280;29070;48.102;-1.652;2022-09-12T11:52:00;100638.03;;;29.15;43.43
39949;BME280;29070;48.102;-1.652;2022-09-12T12:02:24;100630.69;;;29.62;42.12
39949;BME280;29070;48.102;-1.652;2022-09-12T12:07:25;100630.75;;;29.83;42.24
39949;BME280;29070;48.102;-1.652;2022-09-12T12:12:27;100612.03;;;29.99;41.88
39949;BME280;29070;48.102;-1.652;2022-09-12T12:17:28;100592.63;;;30.18;41.55
39949;BME280;29070;48.102;-1.652;2022-09-12T12:22:29;100586.94;;;30.32;40.85
39949;BME280;29070;48.102;-1.652;2022-09-12T12:27:55;100575.03;;;30.46;39.99
39949;BME280;29070;48.102;-1.652;2022-09-12T12:38:37;100539.88;;;30.70;39.21
39949;BME280;29070;48.102;-1.652;2022-09-12T12:43:38;100543.28;;;30.79;39.11
39949;BME280;29070;48.102;-1.652;2022-09-12T12:53:54;100528.84;;;30.75;38.38
39949;BME280;29070;48.102;-1.652;2022-09-12T12:59:04;100520.91;;;30.70;37.95
39949;BME280;29070;48.102;-1.652;2022-09-12T13:04:24;100516.88;;;30.76;38.22
39949;BME280;29070;48.102;-1.652;2022-09-12T13:09:31;100514.91;;;30.98;37.75
39949;BME280;29070;48.102;-1.652;2022-09-12T13:19:42;100492.81;;;31.36;37.15
39949;BME280;29070;48.102;-1.652;2022-09-12T13:24:47;100492.03;;;31.36;36.57
39949;BME280;29070;48.102;-1.652;2022-09-12T13:29:48;100484.13;;;31.56;36.64
39949;BME280;29070;48.102;-1.652;2022-09-12T13:40:17;100475.00;;;31.76;36.53
39949;BME280;29070;48.102;-1.652;2022-09-12T13:45:24;100469.72;;;31.96;36.34
39949;BME280;29070;48.102;-1.652;2022-09-12T13:50:29;100478.28;;;32.10;36.14
39949;BME280;29070;48.102;-1.652;2022-09-12T13:55:33;100469.91;;;32.03;35.68
39949;BME280;29070;48.102;-1.652;2022-09-12T14:00:33;100472.63;;;32.03;36.37
39949;BME280;29070;48.102;-1.652;2022-09-12T14:05:36;100462.38;;;32.24;35.94
39949;BME280;29070;48.102;-1.652;2022-09-12T14:10:39;100455.09;;;32.44;35.60
39949;BME280;29070;48.102;-1.652;2022-09-12T14:15:44;100449.56;;;32.41;35.15
39949;BME280;29070;48.102;-1.652;2022-09-12T14:20:46;100451.25;;;32.29;34.72
39949;BME280;29070;48.102;-1.652;2022-09-12T14:25:46;100447.22;;;32.23;34.92
39949;BME280;29070;48.102;-1.652;2022-09-12T14:36:08;100442.13;;;31.93;34.32
39949;BME280;29070;48.102;-1.652;2022-09-12T14:41:11;100446.06;;;31.80;34.60
39949;BME280;29070;48.102;-1.652;2022-09-12T14:46:23;100445.78;;;31.85;34.82
39949;BME280;29070;48.102;-1.652;2022-09-12T14:51:26;100438.44;;;32.14;35.34
39949;BME280;29070;48.102;-1.652;2022-09-12T14:56:52;100445.34;;;32.11;35.06
39949;BME280;29070;48.102;-1.652;2022-09-12T15:07:23;100433.81;;;32.15;34.85
39949;BME280;29070;48.102;-1.652;2022-09-12T15:12:26;100432.41;;;31.92;35.04
39949;BME280;29070;48.102;-1.652;2022-09-12T15:17:26;100423.53;;;31.80;35.14
39949;BME280;29070;48.102;-1.652;2022-09-12T15:22:26;100419.06;;;31.71;35.45
39949;BME280;29070;48.102;-1.652;2022-09-12T15:27:27;100406.53;;;31.67;36.00
39949;BME280;29070;48.102;-1.652;2022-09-12T15:32:28;100386.00;;;31.53;35.96
39949;BME280;29070;48.102;-1.652;2022-09-12T15:37:29;100383.53;;;31.48;36.18
39949;BME280;29070;48.102;-1.652;2022-09-12T15:42:30;100388.31;;;31.39;36.40
39949;BME280;29070;48.102;-1.652;2022-09-12T15:47:30;100394.97;;;31.29;36.33
39949;BME280;29070;48.102;-1.652;2022-09-12T15:52:31;100390.50;;;31.21;36.54
39949;BME280;29070;48.102;-1.652;2022-09-12T15:57:32;100387.59;;;31.14;37.04
39949;BME280;29070;48.102;-1.652;2022-09-12T16:02:32;100371.78;;;31.04;36.76
39949;BME280;29070;48.102;-1.652;2022-09-12T16:07:32;100370.31;;;30.94;37.00
39949;BME280;29070;48.102;-1.652;2022-09-12T16:12:33;100368.50;;;30.86;36.89
39949;BME280;29070;48.102;-1.652;2022-09-12T16:17:33;100380.47;;;30.85;37.26
39949;BME280;29070;48.102;-1.652;2022-09-12T16:22:34;100385.09;;;30.84;37.95
39949;BME280;29070;48.102;-1.652;2022-09-12T16:27:34;100377.88;;;30.76;38.07
39949;BME280;29070;48.102;-1.652;2022-09-12T16:32:35;100375.97;;;30.64;38.50
39949;BME280;29070;48.102;-1.652;2022-09-12T16:37:36;100384.00;;;30.48;38.45
39949;BME280;29070;48.102;-1.652;2022-09-12T16:42:37;100391.97;;;30.32;39.84
39949;BME280;29070;48.102;-1.652;2022-09-12T16:47:38;100405.47;;;30.20;40.01
39949;BME280;29070;48.102;-1.652;2022-09-12T16:52:38;100388.31;;;30.03;40.48
39949;BME280;29070;48.102;-1.652;2022-09-12T16:57:39;100370.09;;;29.92;39.99
39949;BME280;29070;48.102;-1.652;2022-09-12T17:02:39;100383.94;;;29.78;40.63
39949;BME280;29070;48.102;-1.652;2022-09-12T17:07:40;100376.53;;;29.66;41.17
39949;BME280;29070;48.102;-1.652;2022-09-12T17:12:42;100377.59;;;29.53;41.20
39949;BME280;29070;48.102;-1.652;2022-09-12T17:17:42;100370.56;;;29.39;41.45
39949;BME280;29070;48.102;-1.652;2022-09-12T17:22:43;100392.00;;;29.23;42.10
39949;BME280;29070;48.102;-1.652;2022-09-12T17:27:43;100397.94;;;29.08;42.50
39949;BME280;29070;48.102;-1.652;2022-09-12T17:32:44;100402.63;;;28.99;42.52
39949;BME280;29070;48.102;-1.652;2022-09-12T17:37:44;100408.88;;;28.90;43.47
39949;BME280;29070;48.102;-1.652;2022-09-12T17:42:45;100387.00;;;28.83;42.97
39949;BME280;29070;48.102;-1.652;2022-09-12T17:47:45;100385.16;;;28.66;43.24
39949;BME280;29070;48.102;-1.652;2022-09-12T17:52:46;100375.06;;;28.55;43.55
39949;BME280;29070;48.102;-1.652;2022-09-12T17:57:46;100385.06;;;28.45;43.65
39949;BME280;29070;48.102;-1.652;2022-09-12T18:02:47;100385.44;;;28.35;44.05
39949;BME280;29070;48.102;-1.652;2022-09-12T18:07:48;100387.34;;;28.26;43.83
39949;BME280;29070;48.102;-1.652;2022-09-12T18:12:48;100390.41;;;28.16;44.17
39949;BME280;29070;48.102;-1.652;2022-09-12T18:17:49;100377.88;;;28.02;44.48
39949;BME280;29070;48.102;-1.652;2022-09-12T18:22:50;100385.81;;;27.90;44.55
39949;BME280;29070;48.102;-1.652;2022-09-12T18:27:50;100388.06;;;27.79;44.86
39949;BME280;29070;48.102;-1.652;2022-09-12T18:32:51;100387.13;;;27.66;44.83
39949;BME280;29070;48.102;-1.652;2022-09-12T18:37:51;100383.16;;;27.55;44.89
39949;BME280;29070;48.102;-1.652;2022-09-12T18:42:51;100386.66;;;27.47;45.05
39949;BME280;29070;48.102;-1.652;2022-09-12T18:47:52;100393.63;;;27.39;45.38
39949;BME280;29070;48.102;-1.652;2022-09-12T18:52:53;100398.38;;;27.33;45.33
39949;BME280;29070;48.102;-1.652;2022-09-12T18:57:54;100399.78;;;27.31;45.53
39949;BME280;29070;48.102;-1.652;2022-09-12T19:02:54;100402.13;;;27.24;45.96
39949;BME280;29070;48.102;-1.652;2022-09-12T19:07:55;100410.19;;;27.15;46.43
39949;BME280;29070;48.102;-1.652;2022-09-12T19:12:55;100412.22;;;27.00;46.79
39949;BME280;29070;48.102;-1.652;2022-09-12T19:17:55;100407.16;;;26.90;46.61
39949;BME280;29070;48.102;-1.652;2022-09-12T19:22:56;100407.59;;;26.84;46.83
39949;BME280;29070;48.102;-1.652;2022-09-12T19:27:56;100399.34;;;26.80;46.74
39949;BME280;29070;48.102;-1.652;2022-09-12T19:32:57;100403.28;;;26.74;46.75
39949;BME280;29070;48.102;-1.652;2022-09-12T19:37:57;100399.47;;;26.66;46.92
39949;BME280;29070;48.102;-1.652;2022-09-12T19:42:57;100400.69;;;26.60;47.08
39949;BME280;29070;48.102;-1.652;2022-09-12T19:47:58;100408.41;;;26.53;47.30
39949;BME280;29070;48.102;-1.652;2022-09-12T19:52:58;100408.38;;;26.44;48.11
39949;BME280;29070;48.102;-1.652;2022-09-12T19:57:58;100422.38;;;26.32;48.16
39949;BME280;29070;48.102;-1.652;2022-09-12T20:02:59;100422.03;;;26.25;48.27
39949;BME280;29070;48.102;-1.652;2022-09-12T20:08:00;100414.22;;;26.15;48.62
39949;BME280;29070;48.102;-1.652;2022-09-12T20:13:01;100430.31;;;26.06;48.89
39949;BME280;29070;48.102;-1.652;2022-09-12T20:18:02;100441.00;;;25.97;49.45
39949;BME280;29070;48.102;-1.652;2022-09-12T20:23:02;100431.53;;;25.86;49.64
39949;BME280;29070;48.102;-1.652;2022-09-12T20:28:03;100434.78;;;25.74;50.41
39949;BME280;29070;48.102;-1.652;2022-09-12T20:33:03;100441.38;;;25.68;50.32
39949;BME280;29070;48.102;-1.652;2022-09-12T20:38:03;100445.28;;;25.62;50.41
39949;BME280;29070;48.102;-1.652;2022-09-12T20:43:04;100432.25;;;25.55;50.48
39949;BME280;29070;48.102;-1.652;2022-09-12T20:48:04;100426.19;;;25.49;50.46
39949;BME280;29070;48.102;-1.652;2022-09-12T20:53:04;100417.16;;;25.45;50.48
39949;BME280;29070;48.102;-1.652;2022-09-12T20:58:05;100410.78;;;25.41;50.73
39949;BME280;29070;48.102;-1.652;2022-09-12T21:03:05;100404.63;;;25.41;50.86
39949;BME280;29070;48.102;-1.652;2022-09-12T21:08:07;100406.81;;;25.39;50.72
39949;BME280;29070;48.102;-1.652;2022-09-12T21:13:08;100392.69;;;25.33;50.79
39949;BME280;29070;48.102;-1.652;2022-09-12T21:18:09;100394.91;;;25.31;50.48
39949;BME280;29070;48.102;-1.652;2022-09-12T21:23:09;100399.28;;;25.27;50.73
39949;BME280;29070;48.102;-1.652;2022-09-12T21:28:10;100397.69;;;25.26;51.24
39949;BME280;29070;48.102;-1.652;2022-09-12T21:33:10;100388.09;;;25.20;51.19
39949;BME280;29070;48.102;-1.652;2022-09-12T21:38:10;100389.53;;;25.17;51.05
39949;BME280;29070;48.102;-1.652;2022-09-12T21:43:11;100387.72;;;25.12;51.26
39949;BME280;29070;48.102;-1.652;2022-09-12T21:48:11;100378.19;;;25.06;51.30
39949;BME280;29070;48.102;-1.652;2022-09-12T21:53:11;100365.94;;;25.00;51.43
39949;BME280;29070;48.102;-1.652;2022-09-12T21:58:12;100354.22;;;24.96;51.23
39949;BME280;29070;48.102;-1.652;2022-09-12T22:03:12;100333.34;;;24.93;51.32
39949;BME280;29070;48.102;-1.652;2022-09-12T22:08:13;100340.31;;;24.94;51.49
39949;BME280;29070;48.102;-1.652;2022-09-12T22:13:13;100370.44;;;24.91;51.47
39949;BME280;29070;48.102;-1.652;2022-09-12T22:18:14;100371.06;;;24.88;51.29
39949;BME280;29070;48.102;-1.652;2022-09-12T22:23:14;100378.59;;;24.86;51.27
39949;BME280;29070;48.102;-1.652;2022-09-12T22:28:33;100384.28;;;24.84;51.21
39949;BME280;29070;48.102;-1.652;2022-09-12T22:33:34;100374.94;;;24.82;51.13
39949;BME280;29070;48.102;-1.652;2022-09-12T22:38:35;100373.03;;;24.82;51.30
39949;BME280;29070;48.102;-1.652;2022-09-12T22:43:35;100363.50;;;24.76;51.53
39949;BME280;29070;48.102;-1.652;2022-09-12T22:48:36;100367.88;;;24.72;51.33
39949;BME280;29070;48.102;-1.652;2022-09-12T22:53:37;100369.25;;;24.69;51.73
39949;BME280;29070;48.102;-1.652;2022-09-12T22:58:37;100361.31;;;24.64;51.76
39949;BME280;29070;48.102;-1.652;2022-09-12T23:03:39;100361.91;;;24.61;51.62
39949;BME280;29070;48.102;-1.652;2022-09-12T23:08:40;100366.75;;;24.59;51.72
39949;BME280;29070;48.102;-1.652;2022-09-12T23:13:42;100339.44;;;24.57;51.36
39949;BME280;29070;48.102;-1.652;2022-09-12T23:18:43;100354.47;;;24.58;51.63
39949;BME280;29070;48.102;-1.652;2022-09-12T23:23:44;100365.19;;;24.58;51.85
39949;BME280;29070;48.102;-1.652;2022-09-12T23:28:49;100351.56;;;24.54;51.87
39949;BME280;29070;48.102;-1.652;2022-09-12T23:33:53;100344.66;;;24.48;52.02
39949;BME280;29070;48.102;-1.652;2022-09-12T23:38:54;100354.41;;;24.44;52.06
39949;BME280;29070;48.102;-1.652;2022-09-12T23:43:55;100353.13;;;24.42;52.35
39949;BME280;29070;48.102;-1.652;2022-09-12T23:48:55;100348.94;;;24.35;52.17
39949;BME280;29070;48.102;-1.652;2022-09-12T23:53:56;100357.59;;;24.32;52.22
39949;BME280;29070;48.102;-1.652;2022-09-12T23:58:56;100361.34;;;24.31;52.33
